Time;durP1;ratioP1;P1;durP2;ratioP2;P2;SDS_P1;SDS_P2;PMS_P1;PMS_P2;Temp;Humidity;BMP_temperature;BMP_pressure;BME280_temperature;BME280_humidity;BME280_pressure;Samples;Min_cycle;Max_cycle;Signal;HPM_P1;HPM_P2
2021/06/04 00:00:00;;;;;;;4.78;4.05;;;22.40;43.80;;;;;;6157770;28;80494;-67
2021/06/04 00:03:01;;;;;;;8.07;4.40;;;22.40;43.90;;;;;;6159936;28;81625;-66
2021/06/04 00:06:01;;;;;;;7.43;4.13;;;22.40;43.80;;;;;;6179387;27;81475;-66
2021/06/04 00:09:02;;;;;;;6.97;4.25;;;22.40;44.00;;;;;;6154772;28;80385;-66
2021/06/04 00:12:02;;;;;;;6.07;4.32;;;22.40;43.50;;;;;;6149278;28;80540;-66
2021/06/04 00:15:03;;;;;;;7.95;4.30;;;22.40;43.80;;;;;;6154966;28;80576;-66
2021/06/04 00:18:03;;;;;;;5.72;4.38;;;22.40;43.70;;;;;;6160971;28;81450;-66
2021/06/04 00:21:04;;;;;;;7.88;4.45;;;22.40;43.90;;;;;;6181331;28;80347;-65
2021/06/04 00:24:04;;;;;;;7.75;4.13;;;22.40;43.90;;;;;;6177252;28;80536;-66
2021/06/04 00:27:05;;;;;;;7.55;4.72;;;22.30;43.90;;;;;;6156799;28;88623;-65
2021/06/04 00:30:06;;;;;;;6.25;3.78;;;22.30;43.70;;;;;;6160416;28;80476;-65
2021/06/04 00:33:06;;;;;;;6.00;4.70;;;22.30;43.90;;;;;;6177309;28;82748;-65
2021/06/04 00:36:07;;;;;;;5.07;3.97;;;22.30;43.70;;;;;;6157191;28;80841;-65
2021/06/04 00:39:07;;;;;;;6.40;4.10;;;22.30;43.90;;;;;;6164249;28;81143;-65
2021/06/04 00:42:08;;;;;;;5.55;4.25;;;22.40;44.40;;;;;;6181181;28;80251;-65
2021/06/04 00:45:08;;;;;;;8.15;4.35;;;22.40;44.20;;;;;;6161579;28;81328;-65
2021/06/04 00:48:09;;;;;;;5.30;3.92;;;22.40;44.10;;;;;;6159859;28;82030;-66
2021/06/04 00:51:13;;;;;;;6.75;4.47;;;22.40;44.30;;;;;;6159929;28;82805;-66
2021/06/04 00:54:15;;;;;;;7.90;5.28;;;22.40;44.30;;;;;;6164714;28;80582;-66
2021/06/04 00:57:18;;;;;;;6.57;4.55;;;22.30;44.40;;;;;;6183545;28;82909;-66
2021/06/04 01:00:22;;;;;;;4.82;3.88;;;22.40;44.30;;;;;;6182901;28;81409;-66
2021/06/04 01:03:23;;;;;;;6.95;4.55;;;22.40;44.20;;;;;;6183057;28;81827;-66
2021/06/04 01:06:26;;;;;;;7.93;4.18;;;22.30;44.40;;;;;;6199017;28;81259;-66
2021/06/04 01:09:27;;;;;;;8.40;4.85;;;22.30;44.00;;;;;;6191173;28;83366;-66
2021/06/04 01:12:28;;;;;;;6.75;4.47;;;22.30;44.20;;;;;;6168476;28;81449;-66
2021/06/04 01:15:29;;;;;;;6.93;5.05;;;22.30;44.00;;;;;;6175793;28;82131;-66
2021/06/04 01:18:31;;;;;;;6.07;4.40;;;22.30;44.20;;;;;;6181575;28;83636;-65
2021/06/04 01:21:33;;;;;;;6.18;4.25;;;22.30;44.20;;;;;;6200229;28;83262;-65
2021/06/04 01:24:34;;;;;;;8.75;4.65;;;22.30;44.10;;;;;;6199159;28;82406;-65
2021/06/04 01:27:34;;;;;;;6.03;4.43;;;22.30;44.00;;;;;;6187753;28;82973;-68
2021/06/04 01:30:35;;;;;;;7.30;4.95;;;22.30;44.20;;;;;;6167455;28;81804;-66
2021/06/04 01:33:36;;;;;;;6.93;4.85;;;22.30;43.90;;;;;;6189592;28;82889;-66
2021/06/04 01:36:38;;;;;;;7.35;4.95;;;22.30;44.10;;;;;;6192014;28;82964;-66
2021/06/04 01:39:41;;;;;;;8.00;4.63;;;22.30;44.30;;;;;;6162321;28;82288;-66
2021/06/04 01:42:46;;;;;;;7.47;4.32;;;22.30;44.60;;;;;;6176380;28;83262;-66
2021/06/04 01:45:51;;;;;;;7.03;4.60;;;22.30;44.20;;;;;;6168178;28;82641;-65
2021/06/04 01:48:54;;;;;;;6.57;4.68;;;22.30;44.20;;;;;;6178372;28;83123;-65
2021/06/04 01:51:57;;;;;;;11.63;5.32;;;22.30;44.20;;;;;;6169363;28;80440;-67
2021/06/04 01:55:08;;;;;;;7.28;4.57;;;22.30;43.90;;;;;;6169589;28;83244;-66
2021/06/04 01:58:11;;;;;;;6.05;4.55;;;22.30;44.50;;;;;;6161903;28;81931;-65
2021/06/04 02:01:14;;;;;;;7.50;4.82;;;22.30;44.00;;;;;;6168600;28;83260;-66
2021/06/04 02:04:16;;;;;;;5.85;4.60;;;22.30;44.30;;;;;;6175607;28;83246;-66
2021/06/04 02:07:21;;;;;;;9.23;4.40;;;22.30;44.10;;;;;;6174130;28;80281;-66
2021/06/04 02:10:23;;;;;;;7.55;4.90;;;22.30;44.30;;;;;;6178615;28;82026;-67
2021/06/04 02:13:25;;;;;;;7.30;4.97;;;22.30;44.40;;;;;;6169052;28;82807;-65
2021/06/04 02:16:36;;;;;;;7.20;4.60;;;22.30;44.20;;;;;;6188031;28;82564;-65
2021/06/04 02:19:36;;;;;;;7.78;4.68;;;22.30;44.20;;;;;;6166755;28;81566;-66
2021/06/04 02:22:44;;;;;;;7.50;4.90;;;22.30;44.10;;;;;;6155978;28;82779;-66
2021/06/04 02:25:44;;;;;;;6.63;4.88;;;22.30;44.10;;;;;;6174270;28;83249;-66
2021/06/04 02:28:48;;;;;;;7.10;4.70;;;22.30;44.90;;;;;;6182250;28;80887;-66
2021/06/04 02:31:49;;;;;;;9.13;5.00;;;22.30;44.10;;;;;;6164552;28;80301;-66
2021/06/04 02:34:51;;;;;;;7.00;4.82;;;22.30;44.20;;;;;;6183441;28;82936;-66
2021/06/04 02:37:52;;;;;;;7.03;4.65;;;22.30;44.20;;;;;;6168150;28;83053;-66
2021/06/04 02:40:55;;;;;;;6.97;4.78;;;22.30;44.00;;;;;;6153578;28;80339;-66
2021/06/04 02:43:56;;;;;;;6.95;5.20;;;22.30;44.00;;;;;;6176467;28;83178;-66
2021/06/04 02:46:58;;;;;;;7.03;4.60;;;22.20;44.30;;;;;;6182194;28;80764;-66
2021/06/04 02:50:00;;;;;;;8.18;4.90;;;22.30;44.10;;;;;;6198095;28;83030;-66
2021/06/04 02:53:00;;;;;;;5.45;4.32;;;22.30;44.10;;;;;;6178256;28;82984;-66
2021/06/04 02:56:01;;;;;;;6.30;4.50;;;22.30;44.20;;;;;;6158824;28;80192;-66
2021/06/04 02:59:02;;;;;;;6.90;5.03;;;22.20;43.90;;;;;;6158980;28;81120;-65
2021/06/04 03:02:03;;;;;;;6.65;4.53;;;22.20;43.80;;;;;;6156851;28;83773;-65
2021/06/04 03:05:09;;;;;;;;;;;22.20;44.00;;;;;;6156985;28;83234;-65
2021/06/04 03:08:11;;;;;;;5.93;4.55;;;22.20;44.20;;;;;;6162643;28;81646;-65
2021/06/04 03:11:13;;;;;;;11.23;4.82;;;22.30;43.90;;;;;;6157921;28;80253;-64
2021/06/04 03:14:13;;;;;;;8.70;5.22;;;22.30;43.80;;;;;;6155950;28;83301;-65
2021/06/04 03:17:14;;;;;;;7.30;4.82;;;22.30;43.80;;;;;;6158208;28;80362;-65
2021/06/04 03:20:16;;;;;;;7.97;4.90;;;22.20;43.60;;;;;;6158505;28;80340;-65
2021/06/04 03:23:17;;;;;;;4.97;4.10;;;22.30;44.00;;;;;;6194389;28;83518;-65
2021/06/04 03:26:17;;;;;;;8.02;4.55;;;22.20;43.90;;;;;;6188678;28;80579;-65
2021/06/04 03:29:18;;;;;;;5.25;4.15;;;22.20;44.00;;;;;;6153139;28;83272;-65
2021/06/04 03:32:21;;;;;;;6.68;4.60;;;22.20;43.90;;;;;;6171485;28;82758;-65
2021/06/04 03:35:22;;;;;;;5.90;4.50;;;22.20;44.00;;;;;;6153143;28;80700;-65
2021/06/04 03:38:22;;;;;;;6.57;4.90;;;22.20;43.90;;;;;;6178835;28;82462;-65
2021/06/04 03:41:28;;;;;;;8.10;4.65;;;22.20;43.80;;;;;;6183623;28;82917;-65
2021/06/04 03:44:29;;;;;;;7.18;4.57;;;22.20;43.90;;;;;;6178099;28;80535;-65
2021/06/04 03:47:31;;;;;;;7.68;4.22;;;22.20;44.00;;;;;;6180273;28;80751;-65
2021/06/04 03:50:31;;;;;;;7.38;4.32;;;22.20;44.00;;;;;;6196293;28;83241;-64
2021/06/04 03:53:32;;;;;;;6.82;4.85;;;22.20;44.10;;;;;;6152576;28;80529;-65
2021/06/04 03:56:32;;;;;;;9.48;4.38;;;22.20;44.00;;;;;;6195120;28;81148;-65
2021/06/04 03:59:33;;;;;;;7.53;4.50;;;22.20;44.30;;;;;;6179418;28;80761;-65
2021/06/04 04:02:33;;;;;;;6.32;4.45;;;22.20;44.20;;;;;;6158528;28;80953;-65
2021/06/04 04:05:34;;;;;;;5.97;4.20;;;22.20;44.10;;;;;;6180286;28;80500;-66
2021/06/04 04:08:34;;;;;;;7.45;4.40;;;22.20;43.70;;;;;;6181562;28;80368;-66
2021/06/04 04:11:35;;;;;;;6.22;4.45;;;22.20;44.20;;;;;;6157931;28;82289;-66
2021/06/04 04:14:36;;;;;;;7.50;4.55;;;22.20;44.00;;;;;;6163890;28;85291;-65
2021/06/04 04:17:36;;;;;;;6.80;4.45;;;22.20;45.50;;;;;;6189780;28;80716;-65
2021/06/04 04:20:37;;;;;;;6.13;4.22;;;22.20;46.00;;;;;;6166656;28;80543;-65
2021/06/04 04:23:37;;;;;;;6.40;4.32;;;22.20;45.90;;;;;;6189785;28;81716;-63
2021/06/04 04:26:38;;;;;;;6.18;4.50;;;22.30;45.40;;;;;;6200876;28;82235;-65
2021/06/04 04:29:38;;;;;;;8.77;5.03;;;22.20;45.60;;;;;;6165370;28;80796;-65
2021/06/04 04:32:39;;;;;;;7.05;4.40;;;22.20;46.40;;;;;;6189031;28;80954;-64
2021/06/04 04:35:39;;;;;;;6.28;4.85;;;22.20;46.40;;;;;;6189896;28;80242;-64
2021/06/04 04:38:40;;;;;;;7.47;4.90;;;22.20;46.30;;;;;;6189334;28;80270;-65
2021/06/04 04:41:40;;;;;;;6.93;4.38;;;22.30;46.60;;;;;;6189785;28;80300;-65
2021/06/04 04:44:42;;;;;;;10.35;4.93;;;22.30;46.90;;;;;;6198830;28;83167;-65
2021/06/04 04:47:42;;;;;;;7.53;4.50;;;22.30;46.30;;;;;;6158826;28;80144;-65
2021/06/04 04:50:43;;;;;;;6.35;4.25;;;22.30;46.20;;;;;;6181785;28;80558;-65
2021/06/04 04:53:43;;;;;;;9.48;4.78;;;22.30;46.40;;;;;;6186160;28;80511;-64
2021/06/04 04:56:44;;;;;;;6.45;4.65;;;22.30;46.30;;;;;;6177012;28;80512;-65
2021/06/04 04:59:44;;;;;;;6.78;4.28;;;22.30;46.60;;;;;;6163962;28;80396;-63
2021/06/04 05:02:45;;;;;;;9.25;4.53;;;22.40;47.10;;;;;;6164915;28;81373;-64
2021/06/04 05:05:45;;;;;;;6.95;4.55;;;22.40;46.80;;;;;;6165771;28;80901;-63
2021/06/04 05:08:47;;;;;;;7.22;4.82;;;22.40;47.10;;;;;;6165271;28;80426;-64
2021/06/04 05:11:48;;;;;;;9.40;4.07;;;22.50;46.90;;;;;;6182985;28;80080;-64
2021/06/04 05:14:48;;;;;;;5.70;3.75;;;22.50;47.10;;;;;;6181109;28;80858;-63
2021/06/04 05:17:49;;;;;;;5.90;4.18;;;22.50;47.10;;;;;;6183495;28;81758;-61
2021/06/04 05:20:49;;;;;;;7.80;4.68;;;22.50;46.80;;;;;;6178767;28;80790;-63
2021/06/04 05:23:50;;;;;;;8.90;4.75;;;22.40;46.70;;;;;;6152234;28;80425;-63
2021/06/04 05:26:51;;;;;;;7.97;4.60;;;22.40;46.80;;;;;;6153139;28;80831;-62
2021/06/04 05:29:51;;;;;;;7.85;4.57;;;22.40;46.30;;;;;;6162446;28;80818;-62
2021/06/04 05:32:52;;;;;;;6.32;4.47;;;22.40;46.10;;;;;;6181942;28;80339;-63
2021/06/04 05:35:52;;;;;;;11.10;4.60;;;22.40;47.40;;;;;;6182152;28;80934;-63
2021/06/04 05:38:53;;;;;;;8.55;4.70;;;22.40;47.30;;;;;;6161308;28;80815;-61
2021/06/04 05:41:54;;;;;;;8.23;4.65;;;22.40;47.00;;;;;;6179255;28;79995;-63
2021/06/04 05:44:54;;;;;;;8.68;4.80;;;22.50;47.00;;;;;;6178582;28;80231;-63
2021/06/04 05:47:55;;;;;;;7.00;4.40;;;22.50;47.20;;;;;;6159139;28;80872;-63
2021/06/04 05:50:55;;;;;;;9.88;4.65;;;22.50;47.10;;;;;;6160328;28;83700;-63
2021/06/04 05:53:56;;;;;;;8.45;4.00;;;22.50;46.90;;;;;;6162276;28;80781;-62
2021/06/04 05:56:56;;;;;;;11.65;4.53;;;22.50;46.40;;;;;;6183675;28;81422;-63
2021/06/04 05:59:57;;;;;;;11.55;5.10;;;22.50;46.20;;;;;;6184592;28;80430;-62
2021/06/04 06:02:57;;;;;;;10.98;4.65;;;22.50;46.10;;;;;;6177939;28;80756;-62
2021/06/04 06:05:58;;;;;;;14.60;5.40;;;22.50;46.40;;;;;;6161883;28;80310;-63
2021/06/04 06:08:58;;;;;;;11.00;4.93;;;22.50;46.50;;;;;;6181278;28;81564;-64
2021/06/04 06:11:59;;;;;;;11.68;5.13;;;22.40;46.80;;;;;;6180647;28;80537;-64
2021/06/04 06:15:01;;;;;;;13.80;5.38;;;22.50;46.50;;;;;;6162840;28;80857;-64
2021/06/04 06:18:01;;;;;;;11.15;5.75;;;22.50;46.50;;;;;;6181066;28;83316;-64
2021/06/04 06:21:02;;;;;;;13.63;7.18;;;22.50;48.00;;;;;;6182727;28;80610;-64
2021/06/04 06:24:02;;;;;;;24.13;9.75;;;22.50;47.40;;;;;;6179878;28;80444;-64
2021/06/04 06:27:03;;;;;;;20.73;9.50;;;22.50;47.60;;;;;;6173132;28;82406;-64
2021/06/04 06:30:03;;;;;;;18.33;8.48;;;22.50;46.50;;;;;;6179508;28;80982;-65
2021/06/04 06:33:04;;;;;;;20.73;9.65;;;22.50;46.00;;;;;;6175365;27;81210;-64
2021/06/04 06:36:04;;;;;;;18.50;10.60;;;22.40;45.50;;;;;;6175778;28;81008;-64
2021/06/04 06:39:05;;;;;;;20.88;9.02;;;22.40;45.90;;;;;;6173717;28;83743;-64
2021/06/04 06:42:05;;;;;;;17.80;8.63;;;22.50;45.90;;;;;;6152898;28;84849;-64
2021/06/04 06:45:06;;;;;;;13.80;6.80;;;22.50;45.60;;;;;;6177377;27;80850;-64
2021/06/04 06:48:06;;;;;;;13.07;7.20;;;22.50;45.50;;;;;;6177801;28;80634;-65
2021/06/04 06:51:09;;;;;;;15.02;7.43;;;22.50;45.30;;;;;;6167978;28;81001;-65
2021/06/04 06:54:09;;;;;;;14.80;6.75;;;22.50;45.40;;;;;;6162683;28;81010;-64
2021/06/04 06:57:10;;;;;;;16.33;7.22;;;22.50;45.10;;;;;;6174800;28;80402;-64
2021/06/04 07:00:11;;;;;;;21.67;7.43;;;22.50;44.90;;;;;;6181232;28;81054;-64
2021/06/04 07:03:11;;;;;;;16.65;6.53;;;22.60;45.40;;;;;;6173982;28;80233;-62
2021/06/04 07:06:12;;;;;;;10.60;6.45;;;22.50;44.80;;;;;;6162194;28;80161;-64
2021/06/04 07:09:12;;;;;;;15.50;7.00;;;22.60;44.70;;;;;;6178112;28;80476;-65
2021/06/04 07:12:13;;;;;;;21.42;6.35;;;22.60;44.90;;;;;;6179904;28;80615;-66
2021/06/04 07:15:13;;;;;;;18.90;6.75;;;22.50;44.70;;;;;;6181796;28;80734;-64
2021/06/04 07:18:14;;;;;;;10.35;5.47;;;22.50;44.40;;;;;;6196213;28;81939;-64
2021/06/04 07:21:14;;;;;;;11.20;5.90;;;22.50;43.90;;;;;;6177065;28;80449;-64
2021/06/04 07:24:15;;;;;;;10.15;5.70;;;22.50;43.60;;;;;;6163483;28;80397;-63
2021/06/04 07:27:15;;;;;;;7.82;4.90;;;22.50;43.10;;;;;;6175730;28;80195;-64
2021/06/04 07:30:16;;;;;;;10.20;5.85;;;22.50;43.20;;;;;;6158390;28;80564;-64
2021/06/04 07:33:16;;;;;;;16.90;5.40;;;22.50;43.50;;;;;;6157857;28;80340;-63
2021/06/04 07:36:17;;;;;;;9.38;5.25;;;22.50;43.40;;;;;;6158832;28;81144;-64
2021/06/04 07:39:18;;;;;;;12.38;5.85;;;22.50;44.00;;;;;;6161739;28;81043;-63
2021/06/04 07:42:18;;;;;;;8.90;5.30;;;22.50;43.80;;;;;;6175134;28;81670;-63
2021/06/04 07:45:19;;;;;;;11.25;5.47;;;22.50;44.00;;;;;;6161794;28;80907;-63
2021/06/04 07:48:20;;;;;;;6.68;4.70;;;22.40;43.60;;;;;;6174844;28;80116;-63
2021/06/04 07:51:20;;;;;;;11.63;5.03;;;22.50;43.70;;;;;;6157806;28;80417;-64
2021/06/04 07:54:21;;;;;;;9.65;4.75;;;22.50;43.70;;;;;;6153538;28;80375;-63
2021/06/04 07:57:21;;;;;;;14.90;5.38;;;22.50;43.00;;;;;;6159473;28;80428;-63
2021/06/04 08:00:22;;;;;;;8.90;4.32;;;22.50;42.70;;;;;;6182097;28;80518;-63
2021/06/04 08:03:23;;;;;;;14.85;4.55;;;22.40;42.80;;;;;;6167819;28;80220;-63
2021/06/04 08:06:23;;;;;;;8.20;4.80;;;22.50;42.80;;;;;;6157207;28;83022;-64
2021/06/04 08:09:24;;;;;;;7.25;4.45;;;22.40;42.70;;;;;;6156934;28;80574;-63
2021/06/04 08:12:31;;;;;;;8.20;4.22;;;22.50;42.90;;;;;;6153703;28;80400;-63
2021/06/04 08:15:31;;;;;;;8.13;4.43;;;22.50;43.00;;;;;;6164590;28;81886;-62
2021/06/04 08:18:32;;;;;;;7.80;4.60;;;22.50;43.40;;;;;;6188103;28;82523;-63
2021/06/04 08:21:32;;;;;;;6.63;4.22;;;22.40;44.10;;;;;;6157361;28;81103;-62
2021/06/04 08:24:33;;;;;;;7.60;4.38;;;22.50;43.40;;;;;;6155216;28;80824;-63
2021/06/04 08:27:33;;;;;;;11.43;4.43;;;22.50;43.20;;;;;;6165656;28;80554;-63
2021/06/04 08:30:34;;;;;;;6.10;4.18;;;22.50;43.80;;;;;;6172818;28;81086;-63
2021/06/04 08:33:34;;;;;;;5.75;4.00;;;22.50;43.50;;;;;;6164397;28;80203;-63
2021/06/04 08:36:35;;;;;;;9.43;3.95;;;22.50;43.10;;;;;;6173120;28;80679;-63
2021/06/04 08:39:39;;;;;;;9.82;4.50;;;22.50;43.80;;;;;;6165262;28;83853;-63
2021/06/04 08:42:40;;;;;;;9.20;4.32;;;22.50;44.10;;;;;;6172318;28;80930;-63
2021/06/04 08:45:40;;;;;;;6.70;4.10;;;22.50;43.30;;;;;;6166949;28;82507;-63
2021/06/04 08:48:41;;;;;;;7.85;3.13;;;22.50;42.00;;;;;;6172258;28;81544;-63
2021/06/04 08:51:41;;;;;;;13.55;3.97;;;22.50;40.70;;;;;;6147007;28;80177;-63
2021/06/04 08:54:42;;;;;;;5.50;3.10;;;22.60;42.20;;;;;;6156238;28;80967;-63
2021/06/04 08:57:42;;;;;;;5.45;3.83;;;22.60;39.70;;;;;;6156461;28;80235;-63
2021/06/04 09:00:43;;;;;;;9.20;3.30;;;22.60;39.90;;;;;;6165654;28;81263;-63
2021/06/04 09:03:44;;;;;;;4.60;3.17;;;22.60;40.10;;;;;;6175415;28;80590;-63
2021/06/04 09:06:45;;;;;;;6.88;3.78;;;22.70;40.20;;;;;;6169760;28;80476;-63
2021/06/04 09:09:45;;;;;;;6.13;3.65;;;22.70;40.10;;;;;;6167494;28;80331;-63
2021/06/04 09:12:46;;;;;;;7.78;3.60;;;22.60;39.80;;;;;;6162064;28;80710;-63
2021/06/04 09:15:46;;;;;;;7.57;4.47;;;22.70;39.20;;;;;;6172096;28;80709;-63
2021/06/04 09:18:47;;;;;;;11.20;4.68;;;22.70;38.40;;;;;;6184627;28;81119;-63
2021/06/04 09:21:47;;;;;;;7.35;3.67;;;22.70;38.90;;;;;;6199641;28;80555;-63
2021/06/04 09:24:50;;;;;;;7.03;3.38;;;22.70;39.40;;;;;;6184565;28;80881;-63
2021/06/04 09:27:51;;;;;;;4.15;2.97;;;22.70;39.20;;;;;;6178509;28;81835;-62
2021/06/04 09:30:51;;;;;;;5.32;3.38;;;22.80;39.30;;;;;;6163226;28;80802;-63
2021/06/04 09:33:52;;;;;;;6.22;3.60;;;22.80;38.60;;;;;;6160432;28;80490;-63
2021/06/04 09:36:52;;;;;;;8.93;3.88;;;22.80;37.40;;;;;;6160417;28;80370;-63
2021/06/04 09:39:53;;;;;;;6.47;3.10;;;22.80;38.30;;;;;;6170313;28;80444;-63
2021/06/04 09:42:53;;;;;;;7.57;3.50;;;22.80;38.40;;;;;;6181986;28;80383;-63
2021/06/04 09:45:55;;;;;;;9.50;3.65;;;22.80;37.50;;;;;;6179854;28;80416;-63
2021/06/04 09:48:55;;;;;;;4.90;3.45;;;22.80;38.30;;;;;;6184273;28;82948;-62
2021/06/04 09:51:57;;;;;;;6.82;3.22;;;22.80;37.30;;;;;;6183641;28;80460;-63
2021/06/04 09:54:58;;;;;;;4.30;3.30;;;22.90;37.70;;;;;;6172878;28;82704;-63
2021/06/04 09:57:58;;;;;;;4.93;3.40;;;22.90;38.20;;;;;;6171255;28;83918;-62
2021/06/04 10:01:07;;;;;;;4.78;3.38;;;22.90;38.20;;;;;;6172746;28;81078;-62
2021/06/04 10:04:07;;;;;;;4.60;3.30;;;22.90;37.30;;;;;;6171092;28;80731;-64
2021/06/04 10:07:08;;;;;;;8.65;3.67;;;23.00;37.00;;;;;;6169321;28;84258;-63
2021/06/04 10:10:08;;;;;;;4.55;3.55;;;23.00;36.90;;;;;;6172226;28;80684;-63
2021/06/04 10:13:09;;;;;;;3.95;3.15;;;23.00;37.40;;;;;;6161712;28;81837;-61
2021/06/04 10:16:13;;;;;;;5.15;3.53;;;23.00;37.00;;;;;;6146668;28;81340;-61
2021/06/04 10:19:14;;;;;;;8.70;3.70;;;23.10;37.00;;;;;;6148156;28;81115;-61
2021/06/04 10:22:14;;;;;;;15.77;4.15;;;23.00;37.90;;;;;;6153708;28;80329;-64
2021/06/04 10:25:15;;;;;;;6.15;3.33;;;22.90;38.20;;;;;;6157231;28;80822;-63
2021/06/04 10:28:15;;;;;;;6.55;3.42;;;22.90;38.10;;;;;;6152386;28;80862;-63
2021/06/04 10:31:16;;;;;;;9.65;3.67;;;22.90;38.00;;;;;;6166064;28;80726;-63
2021/06/04 10:34:16;;;;;;;15.30;3.70;;;23.00;37.80;;;;;;6178413;27;80556;-62
2021/06/04 10:37:17;;;;;;;5.80;3.55;;;23.00;37.90;;;;;;6189051;28;81485;-58
2021/06/04 10:40:18;;;;;;;5.70;3.90;;;23.00;37.60;;;;;;6171082;28;80846;-64
2021/06/04 10:43:18;;;;;;;6.88;3.67;;;23.00;38.10;;;;;;6172224;28;80824;-63
2021/06/04 10:46:19;;;;;;;5.90;3.72;;;23.00;38.60;;;;;;6160559;28;80391;-63
2021/06/04 10:49:19;;;;;;;5.00;3.47;;;23.10;38.30;;;;;;6164549;28;80272;-63
2021/06/04 10:52:20;;;;;;;7.65;3.58;;;23.20;38.00;;;;;;6177520;28;80437;-63
2021/06/04 10:55:20;;;;;;;5.82;3.60;;;23.20;38.10;;;;;;6182716;28;81897;-63
2021/06/04 10:58:21;;;;;;;8.45;3.53;;;23.30;38.70;;;;;;6180068;28;80472;-62
2021/06/04 11:01:21;;;;;;;9.10;3.63;;;23.40;38.10;;;;;;6160867;28;80118;-63
2021/06/04 11:04:22;;;;;;;8.38;3.30;;;23.30;38.70;;;;;;6166857;28;80674;-63
2021/06/04 11:07:22;;;;;;;10.77;3.30;;;23.40;38.70;;;;;;6168523;28;81650;-62
2021/06/04 11:10:23;;;;;;;8.93;3.50;;;23.30;38.90;;;;;;6152989;28;80652;-63
2021/06/04 11:13:23;;;;;;;4.53;3.40;;;23.30;38.10;;;;;;6164967;28;80365;-62
2021/06/04 11:16:24;;;;;;;4.40;3.03;;;23.30;38.70;;;;;;6164345;28;80254;-64
2021/06/04 11:19:24;;;;;;;4.43;3.53;;;23.30;38.60;;;;;;6171878;28;80945;-63
2021/06/04 11:22:25;;;;;;;5.22;3.40;;;23.30;39.00;;;;;;6173885;28;80473;-64
2021/06/04 11:25:25;;;;;;;7.22;3.67;;;23.30;39.20;;;;;;6165859;28;80330;-58
2021/06/04 11:28:26;;;;;;;8.30;3.72;;;23.30;39.50;;;;;;6156364;28;81083;-63
2021/06/04 11:31:27;;;;;;;4.70;2.90;;;23.30;39.70;;;;;;6178774;28;80187;-60
2021/06/04 11:34:27;;;;;;;5.13;3.60;;;23.30;39.70;;;;;;6176195;28;80410;-61
2021/06/04 11:37:28;;;;;;;13.45;3.15;;;23.30;40.00;;;;;;6162884;28;80502;-61
2021/06/04 11:40:29;;;;;;;3.70;3.22;;;23.30;40.40;;;;;;6170886;28;80491;-61
2021/06/04 11:43:30;;;;;;;6.20;3.30;;;23.30;41.10;;;;;;6167941;28;80538;-61
2021/06/04 11:46:31;;;;;;;10.85;4.13;;;23.30;41.60;;;;;;6156289;28;80742;-61
2021/06/04 11:49:31;;;;;;;6.50;3.78;;;23.30;42.60;;;;;;6149661;28;81190;-61
2021/06/04 11:52:32;;;;;;;7.85;3.92;;;23.30;44.30;;;;;;6156329;28;81213;-62
2021/06/04 11:55:35;;;;;;;5.00;3.35;;;23.30;43.60;;;;;;6169980;28;80382;-61
2021/06/04 11:58:36;;;;;;;6.32;3.72;;;23.30;45.10;;;;;;6175980;28;80392;-64
2021/06/04 12:01:36;;;;;;;6.82;3.70;;;23.30;46.30;;;;;;6180123;28;81981;-64
2021/06/04 12:04:37;;;;;;;4.55;3.50;;;23.30;45.90;;;;;;6175926;28;80497;-62
2021/06/04 12:07:37;;;;;;;6.40;3.35;;;23.30;45.70;;;;;;6178467;28;81468;-62
2021/06/04 12:10:38;;;;;;;6.80;3.60;;;23.30;45.30;;;;;;6159189;28;80747;-63
2021/06/04 12:13:40;;;;;;;5.25;3.45;;;23.30;44.50;;;;;;6169773;28;80032;-64
2021/06/04 12:16:41;;;;;;;9.40;3.58;;;23.30;43.90;;;;;;6177925;28;81191;-66
2021/06/04 12:19:41;;;;;;;5.18;3.40;;;23.30;43.70;;;;;;6179976;28;80288;-66
2021/06/04 12:22:42;;;;;;;5.28;3.83;;;23.30;43.40;;;;;;6164060;28;81093;-63
2021/06/04 12:25:42;;;;;;;5.13;4.00;;;23.40;43.60;;;;;;6173158;28;80466;-64
2021/06/04 12:28:43;;;;;;;5.00;3.50;;;23.40;43.00;;;;;;6177887;28;81164;-64
2021/06/04 12:31:43;;;;;;;5.80;3.78;;;23.40;43.50;;;;;;6157113;28;81699;-65
2021/06/04 12:34:53;;;;;;;7.13;4.05;;;23.30;43.50;;;;;;6166510;28;80499;-64
2021/06/04 12:37:53;;;;;;;11.00;4.28;;;23.30;43.50;;;;;;6182739;28;80610;-56
2021/06/04 12:40:54;;;;;;;7.18;3.58;;;23.30;43.50;;;;;;6164847;28;80413;-63
2021/06/04 12:43:55;;;;;;;6.03;3.65;;;23.30;43.90;;;;;;6177967;28;80512;-63
2021/06/04 12:46:55;;;;;;;9.13;4.25;;;23.20;43.70;;;;;;6175405;28;80311;-63
2021/06/04 12:49:56;;;;;;;6.63;4.00;;;23.30;45.00;;;;;;6182688;28;80944;-63
2021/06/04 12:52:56;;;;;;;6.70;4.07;;;23.30;44.00;;;;;;6185110;28;80617;-63
2021/06/04 12:55:57;;;;;;;7.50;4.28;;;23.30;43.90;;;;;;6166045;28;80234;-62
2021/06/04 12:58:57;;;;;;;9.68;3.78;;;23.30;44.10;;;;;;6156857;28;80949;-66
2021/06/04 13:01:58;;;;;;;7.25;4.40;;;23.30;44.20;;;;;;6174392;28;81088;-64
2021/06/04 13:04:58;;;;;;;10.75;4.20;;;23.30;44.30;;;;;;6165182;28;80845;-63
2021/06/04 13:07:59;;;;;;;7.68;3.97;;;23.20;45.20;;;;;;6163720;28;83627;-63
2021/06/04 13:10:59;;;;;;;8.95;4.38;;;23.30;44.50;;;;;;6174420;28;80806;-63
2021/06/04 13:14:00;;;;;;;14.70;4.93;;;23.30;44.70;;;;;;6157424;28;81391;-64
2021/06/04 13:17:00;;;;;;;14.25;4.45;;;23.30;44.70;;;;;;6173683;28;82153;-63
2021/06/04 13:20:01;;;;;;;8.32;4.25;;;23.30;44.90;;;;;;6165366;28;80876;-63
2021/06/04 13:23:01;;;;;;;8.35;4.03;;;23.30;45.20;;;;;;6174147;28;80537;-63
2021/06/04 13:26:02;;;;;;;19.27;8.82;;;23.40;45.30;;;;;;6192218;28;80919;-63
2021/06/04 13:29:02;;;;;;;211.35;78.53;;;23.40;45.00;;;;;;6195150;28;83320;-63
2021/06/04 13:32:04;;;;;;;195.43;70.65;;;23.40;46.00;;;;;;6177027;28;82893;-62
2021/06/04 13:35:05;;;;;;;201.55;74.43;;;23.40;46.30;;;;;;6179905;28;84265;-63
2021/06/04 13:38:06;;;;;;;175.73;62.95;;;23.50;46.80;;;;;;6191140;28;84446;-62
2021/06/04 13:41:08;;;;;;;169.18;58.85;;;23.50;46.60;;;;;;6182949;28;85758;-62
2021/06/04 13:44:11;;;;;;;142.77;49.53;;;23.50;47.00;;;;;;6154515;28;83490;-63
2021/06/04 13:47:11;;;;;;;109.82;43.92;;;23.50;49.30;;;;;;6173478;28;83808;-64
2021/06/04 13:50:12;;;;;;;102.22;37.97;;;23.50;49.60;;;;;;6177453;28;83053;-64
2021/06/04 13:53:12;;;;;;;77.20;30.13;;;23.50;52.20;;;;;;6170515;28;84110;-64
2021/06/04 13:56:13;;;;;;;87.15;32.08;;;23.50;46.80;;;;;;6156980;28;83069;-63
2021/06/04 13:59:13;;;;;;;89.00;31.77;;;23.50;48.10;;;;;;6151398;28;83468;-62
2021/06/04 14:02:14;;;;;;;80.03;29.50;;;23.50;48.10;;;;;;6155559;28;84205;-63
2021/06/04 14:05:14;;;;;;;67.18;24.20;;;23.60;47.90;;;;;;6174875;28;83260;-63
2021/06/04 14:08:15;;;;;;;59.97;22.63;;;23.50;47.70;;;;;;6192281;28;86344;-63
2021/06/04 14:11:15;;;;;;;60.17;23.00;;;23.50;46.60;;;;;;6157949;28;86697;-64
2021/06/04 14:14:16;;;;;;;51.03;20.40;;;23.60;47.40;;;;;;6155873;28;82995;-64
2021/06/04 14:17:16;;;;;;;44.67;16.80;;;23.60;46.90;;;;;;6156330;28;83349;-64
2021/06/04 14:20:17;;;;;;;47.17;18.33;;;23.50;46.00;;;;;;6152992;28;83267;-63
2021/06/04 14:23:17;;;;;;;47.20;18.27;;;23.50;47.00;;;;;;6155496;28;86375;-65
2021/06/04 14:26:18;;;;;;;44.83;18.60;;;23.50;47.10;;;;;;6172777;28;83063;-65
2021/06/04 14:29:18;;;;;;;27.38;11.65;;;23.40;47.70;;;;;;6153326;28;84080;-64
2021/06/04 14:32:19;;;;;;;31.88;12.35;;;23.50;44.40;;;;;;6155521;28;82974;-64
2021/06/04 14:35:20;;;;;;;30.70;12.43;;;23.50;44.50;;;;;;6154918;28;83059;-64
2021/06/04 14:38:20;;;;;;;34.97;12.05;;;23.60;45.00;;;;;;6177033;28;91927;-64
2021/06/04 14:41:23;;;;;;;25.92;11.20;;;23.50;45.20;;;;;;6157551;28;83215;-64
2021/06/04 14:44:23;;;;;;;29.33;11.73;;;23.60;45.30;;;;;;6155505;28;84465;-65
2021/06/04 14:47:24;;;;;;;22.58;9.73;;;23.60;45.30;;;;;;6152476;28;83583;-64
2021/06/04 14:50:24;;;;;;;23.33;10.02;;;23.60;45.10;;;;;;6181678;28;82001;-63
2021/06/04 14:53:25;;;;;;;26.30;10.43;;;23.60;45.60;;;;;;6178761;28;83413;-64
2021/06/04 14:56:25;;;;;;;24.88;10.77;;;23.50;46.00;;;;;;6156626;28;85800;-64
2021/06/04 14:59:26;;;;;;;22.90;8.75;;;23.50;45.40;;;;;;6153758;28;84431;-63
2021/06/04 15:02:27;;;;;;;24.83;9.52;;;23.50;45.80;;;;;;6157583;28;84171;-63
2021/06/04 15:05:27;;;;;;;20.30;8.95;;;23.50;45.70;;;;;;6166398;28;80351;-64
2021/06/04 15:08:28;;;;;;;21.10;8.50;;;23.50;45.70;;;;;;6157727;28;80410;-64
2021/06/04 15:11:28;;;;;;;18.42;8.95;;;23.50;45.60;;;;;;6158222;28;81857;-64
2021/06/04 15:14:29;;;;;;;22.25;7.95;;;23.50;45.60;;;;;;6157647;28;80539;-63
2021/06/04 15:17:29;;;;;;;13.57;7.45;;;23.50;45.40;;;;;;6181003;28;80406;-63
2021/06/04 15:20:30;;;;;;;19.90;7.93;;;23.50;45.30;;;;;;6158501;28;80775;-64
2021/06/04 15:23:30;;;;;;;18.23;7.35;;;23.40;45.20;;;;;;6180882;28;81776;-64
2021/06/04 15:26:32;;;;;;;18.52;7.47;;;23.40;45.10;;;;;;6158611;28;80726;-64
2021/06/04 15:29:32;;;;;;;14.52;8.02;;;23.50;45.10;;;;;;6180766;28;81134;-65
2021/06/04 15:32:33;;;;;;;13.68;6.75;;;23.40;45.10;;;;;;6179543;28;82979;-63
2021/06/04 15:35:33;;;;;;;14.63;6.65;;;23.40;45.10;;;;;;6182041;28;80799;-63